Time;durP1;ratioP1;P1;durP2;ratioP2;P2;SDS_P1;SDS_P2;PMS_P1;PMS_P2;Temp;Humidity;BMP_temperature;BMP_pressure;BME280_temperature;BME280_humidity;BME280_pressure;Samples;Min_cycle;Max_cycle;Signal;HPM_P1;HPM_P2
2023/10/19 00:01:17;;;;;;;2.40;2.20;;;17.50;66.40;18.60;98715.00;;;;5071092;28;20614;-51
2023/10/19 00:03:49;;;;;;;2.60;2.40;;;17.50;66.40;18.60;98707.00;;;;5068838;28;20195;-49
2023/10/19 00:06:17;;;;;;;3.77;2.20;;;17.50;66.40;18.60;98702.00;;;;5063094;28;20693;-50
2023/10/19 00:08:43;;;;;;;2.57;2.37;;;17.50;66.40;18.60;98703.00;;;;5066146;28;20190;-50
2023/10/19 00:11:10;;;;;;;2.40;2.20;;;17.50;66.40;18.60;98705.00;;;;5062231;28;20205;-50
2023/10/19 00:13:37;;;;;;;2.10;2.00;;;17.50;66.50;18.60;98702.00;;;;5064060;28;20178;-49
2023/10/19 00:16:23;;;;;;;2.40;2.20;;;17.50;66.50;18.60;98701.00;;;;5068747;28;20178;-50
2023/10/19 00:18:49;;;;;;;2.47;2.30;;;17.50;66.40;18.50;98699.00;;;;5067888;28;20189;-50
2023/10/19 00:21:23;;;;;;;4.30;2.30;;;17.50;66.50;18.50;98694.00;;;;5068764;28;20235;-49
2023/10/19 00:23:58;;;;;;;2.47;2.27;;;17.50;66.50;18.50;98690.00;;;;5068642;28;20170;-49
2023/10/19 00:26:27;;;;;;;2.40;2.20;;;17.40;66.50;18.50;98698.00;;;;5060758;28;20746;-49
2023/10/19 00:28:57;;;;;;;2.40;2.20;;;17.50;66.60;18.50;98692.00;;;;5069403;28;20847;-49
2023/10/19 00:31:33;;;;;;;2.40;2.20;;;17.50;66.60;18.50;98693.00;;;;5070428;28;20209;-50
2023/10/19 00:34:00;;;;;;;2.50;2.30;;;17.40;66.60;18.50;98679.00;;;;5066241;28;20188;-49
2023/10/19 00:36:26;;;;;;;2.30;2.10;;;17.50;66.70;18.50;98691.00;;;;5064725;28;20196;-50
2023/10/19 00:38:53;;;;;;;2.50;2.30;;;17.40;66.60;18.50;98626.00;;;;5057154;28;20194;-49
2023/10/19 00:41:31;;;;;;;2.40;2.20;;;17.50;66.70;18.50;98686.00;;;;5056413;28;20231;-50
2023/10/19 00:44:07;;;;;;;2.30;2.10;;;17.40;66.60;18.50;98693.00;;;;5050796;28;20186;-50
2023/10/19 00:46:37;;;;;;;2.40;2.20;;;17.40;66.60;18.50;98684.00;;;;5049131;28;20193;-50
2023/10/19 00:49:05;;;;;;;2.40;2.20;;;17.40;66.60;18.50;98670.00;;;;5048539;28;20178;-50
2023/10/19 00:54:15;;;;;;;2.40;2.20;;;17.40;66.60;18.50;98682.00;;;;5071901;28;20173;-51
2023/10/19 00:56:48;;;;;;;2.40;2.20;;;17.40;66.60;18.40;98679.00;;;;5071826;28;20492;-50
2023/10/19 00:59:19;;;;;;;2.53;2.20;;;17.40;66.60;18.40;98678.00;;;;5066646;28;20664;-49
2023/10/19 01:01:47;;;;;;;2.13;2.03;;;17.40;66.60;18.40;98662.00;;;;5066347;28;20213;-49
2023/10/19 01:04:14;;;;;;;2.50;2.30;;;17.40;66.60;18.40;98675.00;;;;5066689;28;20182;-52
2023/10/19 01:06:44;;;;;;;2.30;2.10;;;17.40;67.40;18.40;98668.00;;;;5060734;28;20266;-49
2023/10/19 01:09:14;;;;;;;2.47;2.27;;;17.40;66.60;18.40;98675.00;;;;5061827;28;20185;-52
2023/10/19 01:11:49;;;;;;;2.47;2.27;;;17.40;66.60;18.40;98616.00;;;;5061238;28;20324;-50
2023/10/19 01:14:21;;;;;;;2.40;2.20;;;17.40;66.60;18.40;98675.00;;;;5067846;28;20189;-50
2023/10/19 01:16:49;;;;;;;2.07;1.97;;;17.40;66.60;18.40;98680.00;;;;5066427;28;20690;-50
2023/10/19 01:19:18;;;;;;;2.40;2.20;;;17.40;66.60;18.40;98678.00;;;;5066291;28;20686;-50
2023/10/19 01:21:50;;;;;;;2.43;2.23;;;17.40;66.80;18.40;98684.00;;;;5066523;28;20213;-50
2023/10/19 01:24:20;;;;;;;2.10;2.00;;;17.40;66.70;18.40;98680.00;;;;5067830;28;20551;-51
2023/10/19 01:26:47;;;;;;;2.30;2.10;;;17.40;66.80;18.40;98672.00;;;;5068058;28;20276;-49
2023/10/19 01:29:17;;;;;;;2.30;2.10;;;17.30;66.70;18.40;98674.00;;;;5060915;28;20178;-49
2023/10/19 01:34:28;;;;;;;2.33;2.13;;;17.30;66.90;18.40;98676.00;;;;5046917;28;20236;-50
2023/10/19 01:36:55;;;;;;;2.40;2.20;;;17.30;67.00;18.40;98683.00;;;;5047574;28;20182;-50
2023/10/19 01:39:21;;;;;;;2.40;2.20;;;17.30;67.80;18.40;98678.00;;;;5046792;28;20182;-50
2023/10/19 01:41:50;;;;;;;2.40;2.20;;;17.30;67.00;18.30;98673.00;;;;5066195;28;20210;-50
2023/10/19 01:44:16;;;;;;;2.27;2.10;;;17.30;67.00;18.30;98677.00;;;;5066075;28;20518;-50
2023/10/19 01:46:45;;;;;;;2.30;2.10;;;17.30;67.00;18.30;98682.00;;;;5059432;28;20190;-49
2023/10/19 01:49:11;;;;;;;2.50;2.30;;;17.30;67.00;18.40;98687.00;;;;5067093;28;20220;-49
2023/10/19 01:51:40;;;;;;;2.27;2.10;;;17.30;67.10;18.40;98679.00;;;;5066963;28;20225;-48
2023/10/19 01:54:07;;;;;;;2.40;2.17;;;17.30;67.10;18.30;98674.00;;;;5066722;28;20546;-50
2023/10/19 01:56:35;;;;;;;2.10;2.00;;;17.30;67.10;18.30;98663.00;;;;5059884;28;20173;-50
2023/10/19 01:59:03;;;;;;;2.53;2.20;;;17.30;67.20;18.30;98660.00;;;;5067274;28;20651;-50
2023/10/19 02:01:29;;;;;;;2.10;2.00;;;17.30;67.20;18.30;98671.00;;;;5066184;28;20259;-49
2023/10/19 02:03:59;;;;;;;2.17;2.03;;;17.30;67.20;18.30;98666.00;;;;5067158;28;20726;-50
2023/10/19 02:06:46;;;;;;;2.30;2.10;;;17.30;67.20;18.30;98665.00;;;;5067604;28;20185;-49
2023/10/19 02:11:48;;;;;;;1.97;1.87;;;17.30;67.20;18.30;98586.00;;;;5067484;28;20690;-49
2023/10/19 02:14:15;;;;;;;2.63;2.30;;;17.30;67.20;18.30;98651.00;;;;5049976;28;20190;-50
2023/10/19 02:16:43;;;;;;;2.23;2.13;;;17.30;67.20;18.30;98655.00;;;;5067246;28;20227;-50
2023/10/19 02:19:09;;;;;;;2.00;1.90;;;17.30;67.30;18.30;98650.00;;;;5059822;28;20593;-50
2023/10/19 02:21:41;;;;;;;3.23;2.10;;;17.30;67.20;18.30;98652.00;;;;5048272;28;20212;-49
2023/10/19 02:24:14;;;;;;;2.17;2.00;;;17.30;67.20;18.30;98650.00;;;;5061847;28;20190;-49
2023/10/19 02:26:40;;;;;;;2.10;2.00;;;17.30;67.30;18.30;98654.00;;;;5047098;28;20633;-49
2023/10/19 02:29:09;;;;;;;2.33;2.13;;;17.30;67.30;18.30;98642.00;;;;5046682;28;20273;-49
2023/10/19 02:31:42;;;;;;;2.10;2.00;;;17.20;67.20;18.30;98641.00;;;;5047037;28;20242;-50
2023/10/19 02:34:10;;;;;;;2.30;2.10;;;17.20;67.30;18.30;98629.00;;;;5052604;28;20174;-51
2023/10/19 02:36:37;;;;;;;2.30;2.10;;;17.30;67.50;18.30;98627.00;;;;5055147;28;20280;-50
2023/10/19 02:39:07;;;;;;;2.00;1.90;;;17.20;67.40;18.30;98630.00;;;;5058173;28;20268;-51
2023/10/19 02:41:41;;;;;;;2.20;2.00;;;17.30;67.50;18.30;98625.00;;;;5061523;28;20198;-50
2023/10/19 02:46:52;;;;;;;2.30;2.10;;;17.20;67.40;18.30;98633.00;;;;5061479;28;20197;-50
2023/10/19 02:49:19;;;;;;;3.07;2.10;;;17.20;67.50;18.30;98636.00;;;;5072182;28;20181;-50
2023/10/19 02:51:45;;;;;;;2.30;2.10;;;17.20;67.50;18.30;98637.00;;;;5064269;28;20310;-50
2023/10/19 02:54:24;;;;;;;2.03;1.93;;;17.20;67.50;18.30;98615.00;;;;5062358;28;20754;-50
2023/10/19 02:56:56;;;;;;;4.03;2.10;;;17.20;67.50;18.30;98627.00;;;;5069361;28;20176;-49
2023/10/19 02:59:23;;;;;;;2.83;2.13;;;17.20;67.50;18.30;98633.00;;;;5067390;28;20206;-50
2023/10/19 03:04:36;;;;;;;2.73;2.00;;;17.20;67.80;18.30;98625.00;;;;5066097;28;20181;-51
2023/10/19 03:07:05;;;;;;;2.40;2.20;;;17.20;67.90;18.30;98617.00;;;;5070231;28;20571;-50
2023/10/19 03:09:38;;;;;;;2.40;2.00;;;17.20;68.10;18.30;98607.00;;;;5071474;28;20182;-49
2023/10/19 03:12:09;;;;;;;4.30;2.20;;;17.20;68.20;18.30;98613.00;;;;5071230;28;20221;-49
2023/10/19 03:14:34;;;;;;;2.30;2.10;;;17.20;68.20;18.30;98602.00;;;;5067875;28;20200;-49
2023/10/19 03:17:00;;;;;;;2.67;2.10;;;17.20;68.20;18.30;98604.00;;;;5071366;28;20170;-50
2023/10/19 03:19:26;;;;;;;2.30;2.10;;;17.20;68.20;18.30;98593.00;;;;5060052;28;20213;-49
2023/10/19 03:21:55;;;;;;;2.17;2.07;;;17.20;68.30;18.30;98582.00;;;;5062590;28;20194;-50
2023/10/19 03:24:23;;;;;;;2.30;2.10;;;17.20;68.30;18.30;98596.00;;;;5062951;28;20176;-50
2023/10/19 03:26:54;;;;;;;2.33;2.17;;;17.20;68.30;18.30;98587.00;;;;5071034;28;20189;-50
2023/10/19 03:29:22;;;;;;;2.20;2.00;;;17.20;68.40;18.30;98592.00;;;;5071178;28;20560;-50
2023/10/19 03:31:48;;;;;;;2.23;2.07;;;17.20;68.40;18.30;98596.00;;;;5069743;28;20210;-49
2023/10/19 03:34:16;;;;;;;7.50;2.40;;;17.20;68.40;18.30;98587.00;;;;5071069;28;20178;-49
2023/10/19 03:36:42;;;;;;;2.87;2.07;;;17.20;68.70;18.30;98590.00;;;;5070948;28;20205;-50
2023/10/19 03:39:14;;;;;;;6.67;2.20;;;17.20;68.80;18.30;98588.00;;;;5070394;28;20223;-49
2023/10/19 03:41:44;;;;;;;2.20;2.00;;;17.30;68.80;18.30;98582.00;;;;5070949;28;20283;-50
2023/10/19 03:44:19;;;;;;;4.37;2.17;;;17.20;68.60;18.30;98574.00;;;;5069764;28;20607;-50
2023/10/19 03:46:57;;;;;;;3.70;2.13;;;17.30;68.60;18.30;98574.00;;;;5063782;28;20198;-50
2023/10/19 03:49:30;;;;;;;5.10;2.20;;;17.20;68.40;18.00;98561.00;;;;5063098;28;20181;-50
2023/10/19 03:51:58;;;;;;;2.43;2.10;;;17.20;68.40;18.20;98564.00;;;;5054334;28;20861;-49
2023/10/19 03:54:27;;;;;;;3.00;2.50;;;17.20;68.50;18.20;98557.00;;;;5067010;28;20184;-50
2023/10/19 03:56:55;;;;;;;3.17;2.10;;;17.20;68.60;18.20;98547.00;;;;5069797;28;20242;-50
2023/10/19 03:59:21;;;;;;;2.97;1.90;;;17.20;68.40;18.20;98558.00;;;;5068519;28;20249;-50
2023/10/19 04:01:47;;;;;;;4.63;2.10;;;17.20;68.40;18.20;98529.00;;;;5069664;28;20692;-50
2023/10/19 04:04:13;;;;;;;5.80;2.30;;;17.20;68.40;18.20;98545.00;;;;5070207;28;20189;-50
2023/10/19 04:06:40;;;;;;;4.80;2.37;;;17.10;68.30;18.20;98548.00;;;;5069935;28;20651;-50
2023/10/19 04:09:06;;;;;;;4.57;2.10;;;17.20;68.40;18.30;98557.00;;;;5069915;28;20173;-51
2023/10/19 04:11:50;;;;;;;7.07;2.20;;;17.10;68.30;18.20;98560.00;;;;5071452;28;20213;-50
2023/10/19 04:14:16;;;;;;;2.10;1.90;;;17.20;68.40;18.20;98556.00;;;;5072620;28;20227;-50
2023/10/19 04:16:48;;;;;;;3.40;1.93;;;17.20;68.40;18.20;98556.00;;;;5071246;28;20690;-50
2023/10/19 04:19:15;;;;;;;5.20;2.10;;;17.10;68.30;18.20;98568.00;;;;5069488;28;20177;-51
2023/10/19 04:21:46;;;;;;;3.60;1.93;;;17.10;68.30;18.20;98566.00;;;;5069550;28;20619;-50
2023/10/19 04:24:12;;;;;;;3.07;2.10;;;17.10;68.40;18.20;98552.00;;;;5069746;28;20212;-50
2023/10/19 04:26:38;;;;;;;5.37;2.20;;;17.20;68.60;18.20;98548.00;;;;5073595;28;20195;-50
2023/10/19 04:29:11;;;;;;;2.70;1.90;;;17.20;68.70;18.20;98557.00;;;;5075304;28;20554;-51
2023/10/19 04:31:40;;;;;;;3.70;2.07;;;17.10;68.60;18.20;98554.00;;;;5070511;28;20598;-50
2023/10/19 04:34:09;;;;;;;3.40;2.10;;;17.10;68.80;18.20;98553.00;;;;5068362;28;20578;-50
2023/10/19 04:36:35;;;;;;;3.40;2.00;;;17.10;68.80;18.20;98555.00;;;;5070230;28;20208;-53
2023/10/19 04:39:02;;;;;;;2.80;1.90;;;17.10;69.00;18.20;98559.00;;;;5069946;28;20212;-49
2023/10/19 04:41:28;;;;;;;3.97;2.10;;;17.10;69.00;18.20;98553.00;;;;5078729;28;20219;-50
2023/10/19 04:43:54;;;;;;;3.00;1.90;;;17.10;69.00;18.20;98550.00;;;;5069630;28;20560;-50
2023/10/19 04:46:20;;;;;;;3.67;2.10;;;17.10;69.00;18.20;98553.00;;;;5069117;28;20284;-50
2023/10/19 04:48:46;;;;;;;4.77;2.10;;;17.10;69.00;18.20;98540.00;;;;5069250;28;20311;-50
2023/10/19 04:51:11;;;;;;;3.27;2.10;;;17.10;69.10;18.20;98539.00;;;;5068503;28;20632;-50
2023/10/19 04:53:37;;;;;;;5.07;2.33;;;17.10;69.30;18.20;98540.00;;;;5069169;28;20207;-51
2023/10/19 04:56:06;;;;;;;5.13;2.03;;;17.10;69.40;18.20;98542.00;;;;5068181;28;20184;-50
2023/10/19 04:58:33;;;;;;;2.10;1.90;;;17.10;69.40;18.20;98549.00;;;;5064963;28;20233;-50
2023/10/19 05:00:59;;;;;;;2.77;2.10;;;17.20;69.50;18.20;98545.00;;;;5068857;28;20209;-50
2023/10/19 05:03:25;;;;;;;2.47;2.10;;;17.10;69.40;18.20;98553.00;;;;5069331;28;20663;-50
2023/10/19 05:05:51;;;;;;;3.50;2.10;;;17.10;69.40;18.20;98549.00;;;;5069028;28;20303;-50
2023/10/19 05:08:17;;;;;;;2.37;2.13;;;17.10;69.40;18.20;98547.00;;;;5068190;28;20232;-55
2023/10/19 05:10:43;;;;;;;2.97;2.00;;;17.10;69.30;18.20;98544.00;;;;5068148;28;20691;-50
2023/10/19 05:13:08;;;;;;;4.23;2.20;;;17.10;69.20;18.20;98548.00;;;;5068883;28;20191;-50
2023/10/19 05:15:34;;;;;;;2.40;2.07;;;17.10;69.30;18.20;98554.00;;;;5068735;28;20181;-50
2023/10/19 05:18:01;;;;;;;2.27;2.00;;;17.10;69.20;18.20;98555.00;;;;5068970;28;20184;-50
2023/10/19 05:20:27;;;;;;;2.93;2.03;;;17.10;69.20;18.20;98547.00;;;;5067031;28;20226;-49
2023/10/19 05:22:53;;;;;;;4.50;2.00;;;17.10;69.10;18.20;98556.00;;;;5068971;28;20551;-50
2023/10/19 05:25:19;;;;;;;2.97;1.93;;;17.10;69.20;18.20;98563.00;;;;5068783;28;20185;-49
2023/10/19 05:27:45;;;;;;;2.63;1.80;;;17.10;69.20;18.20;98545.00;;;;5067916;28;20189;-49
2023/10/19 05:30:11;;;;;;;2.57;2.20;;;17.10;69.10;18.20;98543.00;;;;5069333;28;20185;-49
2023/10/19 05:32:38;;;;;;;3.93;2.10;;;17.10;69.10;18.20;98545.00;;;;5068775;28;20841;-50
2023/10/19 05:35:04;;;;;;;2.47;1.83;;;17.10;69.10;18.20;98548.00;;;;5068364;28;20181;-50
2023/10/19 05:37:31;;;;;;;2.23;1.90;;;17.10;69.00;18.20;98542.00;;;;5068828;28;20180;-50
2023/10/19 05:39:57;;;;;;;2.10;1.90;;;17.10;69.10;18.20;98536.00;;;;5068117;28;20242;-50
2023/10/19 05:42:23;;;;;;;3.30;2.00;;;17.10;69.10;18.10;98534.00;;;;5067450;28;20209;-50
2023/10/19 05:44:48;;;;;;;3.23;2.07;;;17.10;69.30;18.20;98535.00;;;;5068012;28;20196;-50
2023/10/19 05:47:14;;;;;;;5.53;1.90;;;17.10;69.30;18.20;98535.00;;;;5068370;28;20215;-50
2023/10/19 05:49:40;;;;;;;3.77;2.00;;;17.10;70.10;18.20;98539.00;;;;5067742;28;20193;-50
2023/10/19 05:52:05;;;;;;;3.67;1.93;;;17.10;69.30;18.20;98542.00;;;;5068082;28;20213;-50
2023/10/19 05:54:31;;;;;;;4.40;2.10;;;17.10;69.30;18.20;98543.00;;;;5068449;28;20181;-50
2023/10/19 05:56:57;;;;;;;2.33;2.10;;;17.10;69.30;18.20;98556.00;;;;5068244;28;20291;-49
2023/10/19 05:59:26;;;;;;;2.33;2.10;;;17.10;69.30;18.20;98547.00;;;;5067007;28;20184;-49
2023/10/19 06:01:52;;;;;;;2.87;2.03;;;17.10;69.30;18.20;98542.00;;;;5068286;28;20217;-50
2023/10/19 06:04:18;;;;;;;2.10;1.83;;;17.10;69.30;18.20;98561.00;;;;5068492;28;20185;-50
2023/10/19 06:06:43;;;;;;;2.20;2.00;;;17.00;70.00;18.20;98554.00;;;;5068311;28;20185;-51
2023/10/19 06:09:09;;;;;;;2.13;1.83;;;17.10;69.40;18.20;98559.00;;;;5067721;28;20222;-50
2023/10/19 06:11:37;;;;;;;3.60;1.80;;;17.10;69.30;18.20;98566.00;;;;5067896;28;20271;-49
2023/10/19 06:14:06;;;;;;;3.73;1.80;;;17.10;69.30;18.20;98570.00;;;;5068284;28;20670;-49
2023/10/19 06:16:33;;;;;;;2.67;1.80;;;17.00;69.20;18.20;98561.00;;;;5068191;28;20212;-50
2023/10/19 06:19:00;;;;;;;2.00;1.80;;;17.00;69.20;18.20;98562.00;;;;5070069;28;20189;-50
2023/10/19 06:21:25;;;;;;;1.93;1.80;;;17.00;69.20;18.10;98564.00;;;;5084646;28;20217;-51
2023/10/19 06:23:52;;;;;;;2.77;1.80;;;17.00;69.20;18.20;98574.00;;;;5071204;28;20196;-50
2023/10/19 06:26:18;;;;;;;2.70;1.80;;;17.00;69.20;18.20;98577.00;;;;5065980;28;20269;-50
2023/10/19 06:28:44;;;;;;;2.77;2.00;;;17.10;69.40;18.10;98587.00;;;;5059230;28;20190;-50
2023/10/19 06:31:10;;;;;;;2.17;1.90;;;17.10;69.40;18.10;98583.00;;;;5072320;28;20343;-50
2023/10/19 06:33:41;;;;;;;2.27;1.87;;;17.00;69.20;18.10;98583.00;;;;5079398;28;20186;-50
2023/10/19 06:36:07;;;;;;;2.00;1.80;;;17.00;69.20;18.10;98577.00;;;;5075136;28;20272;-49
2023/10/19 06:38:33;;;;;;;2.20;2.00;;;17.00;69.30;18.10;98585.00;;;;5057307;28;20217;-49
2023/10/19 06:41:00;;;;;;;2.10;1.90;;;17.00;69.20;18.10;98583.00;;;;5065763;28;20215;-50
2023/10/19 06:43:28;;;;;;;1.80;1.70;;;17.00;69.40;18.10;98590.00;;;;5060051;28;20248;-49
2023/10/19 06:45:55;;;;;;;2.23;1.80;;;17.00;69.30;18.10;98583.00;;;;5067575;28;20201;-49
2023/10/19 06:48:21;;;;;;;2.33;1.80;;;17.00;69.30;18.10;98580.00;;;;5063105;28;20198;-51
2023/10/19 06:50:47;;;;;;;2.40;1.80;;;17.00;69.30;18.10;98586.00;;;;5064549;28;20221;-50
2023/10/19 06:53:12;;;;;;;2.37;1.83;;;17.00;69.30;18.20;98585.00;;;;5065624;28;20173;-50
2023/10/19 06:55:39;;;;;;;2.80;1.80;;;17.00;69.50;18.20;98591.00;;;;5062184;28;20189;-52
2023/10/19 06:58:05;;;;;;;2.43;1.67;;;17.00;69.60;18.10;98592.00;;;;5064546;28;20591;-50
2023/10/19 07:00:31;;;;;;;3.40;1.77;;;17.10;69.80;18.20;98593.00;;;;5060390;28;20192;-50
2023/10/19 07:03:00;;;;;;;2.50;1.80;;;17.10;69.80;18.20;98588.00;;;;5056824;28;20185;-50
2023/10/19 07:05:29;;;;;;;2.10;1.90;;;17.10;69.70;18.20;98586.00;;;;5071089;28;20189;-50
2023/10/19 07:07:56;;;;;;;2.17;1.97;;;17.10;69.70;18.20;98590.00;;;;5071321;28;20249;-50
2023/10/19 07:10:22;;;;;;;2.07;1.70;;;17.10;69.80;18.20;98588.00;;;;5065843;28;20188;-51
2023/10/19 07:12:56;;;;;;;2.67;2.10;;;17.10;69.80;18.20;98583.00;;;;5057467;28;20208;-50
2023/10/19 07:15:22;;;;;;;2.20;1.80;;;17.10;69.90;18.20;98589.00;;;;5059386;28;20200;-51
2023/10/19 07:17:54;;;;;;;2.10;1.90;;;17.10;70.00;18.20;98593.00;;;;5069949;28;20221;-50
2023/10/19 07:20:31;;;;;;;2.00;1.80;;;17.10;70.00;18.20;98601.00;;;;5066119;28;20181;-51
2023/10/19 07:23:18;;;;;;;2.90;2.03;;;17.10;70.00;18.20;98609.00;;;;5070780;28;20206;-50
2023/10/19 07:25:45;;;;;;;2.33;1.80;;;17.10;70.00;18.10;98608.00;;;;5070494;28;20657;-49
2023/10/19 07:28:15;;;;;;;2.90;1.90;;;17.00;69.90;18.10;98609.00;;;;5070389;28;20180;-50
2023/10/19 07:30:41;;;;;;;2.00;1.90;;;17.00;69.90;18.10;98611.00;;;;5067602;28;20295;-50
2023/10/19 07:33:10;;;;;;;2.03;1.87;;;17.00;69.90;18.10;98614.00;;;;5070574;28;20169;-50
2023/10/19 07:35:42;;;;;;;4.43;1.80;;;17.00;69.90;18.10;98607.00;;;;5070224;28;20193;-50
2023/10/19 07:38:07;;;;;;;2.13;1.90;;;17.00;70.10;18.10;98613.00;;;;5070842;28;20556;-50
2023/10/19 07:40:34;;;;;;;2.63;1.80;;;17.10;70.20;18.10;98603.00;;;;5069055;28;20188;-49
2023/10/19 07:43:00;;;;;;;2.17;1.97;;;17.00;70.10;18.10;98596.00;;;;5065906;28;20189;-50
2023/10/19 07:45:26;;;;;;;2.00;1.80;;;17.00;70.20;18.10;98603.00;;;;5066621;28;20593;-49
2023/10/19 07:47:51;;;;;;;2.80;1.70;;;17.10;70.50;18.10;98602.00;;;;5052173;28;20330;-50
2023/10/19 07:50:17;;;;;;;2.97;1.80;;;17.00;70.40;18.20;98605.00;;;;5070243;28;20223;-51
2023/10/19 07:52:48;;;;;;;2.17;1.93;;;17.10;70.70;18.10;98603.00;;;;5072005;28;20181;-50
2023/10/19 07:55:15;;;;;;;2.77;1.97;;;17.10;71.00;18.10;98607.00;;;;5060321;28;20208;-49
2023/10/19 07:57:41;;;;;;;2.03;1.90;;;17.00;70.70;18.10;98609.00;;;;5069076;28;20181;-50
2023/10/19 08:00:08;;;;;;;2.00;1.80;;;17.00;70.60;18.20;98606.00;;;;5069607;28;20181;-50
2023/10/19 08:02:46;;;;;;;2.90;1.80;;;17.10;70.70;18.20;98601.00;;;;5068850;28;20205;-51
2023/10/19 08:05:18;;;;;;;2.40;1.90;;;17.10;70.70;18.10;98605.00;;;;5054883;28;20216;-50
2023/10/19 08:07:44;;;;;;;4.20;1.90;;;17.00;70.50;18.20;98601.00;;;;5048344;28;20468;-50
2023/10/19 08:10:11;;;;;;;2.87;1.77;;;17.10;70.70;18.10;98593.00;;;;5048510;28;20507;-50
2023/10/19 08:12:43;;;;;;;2.30;1.93;;;17.00;70.50;18.20;98601.00;;;;5048875;28;20213;-51
2023/10/19 08:15:13;;;;;;;3.67;1.80;;;17.00;70.50;18.20;98596.00;;;;5060256;28;20400;-50
2023/10/19 08:17:39;;;;;;;3.53;1.87;;;17.00;70.40;18.10;98593.00;;;;5052240;28;20181;-49
2023/10/19 08:20:15;;;;;;;1.80;1.70;;;17.00;70.40;18.20;98589.00;;;;5050499;28;20201;-50
2023/10/19 08:22:41;;;;;;;2.53;1.80;;;17.00;70.40;18.10;98587.00;;;;5051117;28;20207;-50
2023/10/19 08:25:11;;;;;;;1.77;1.67;;;17.00;70.40;18.10;98587.00;;;;5050592;28;20185;-50
2023/10/19 08:27:47;;;;;;;2.40;1.87;;;17.00;70.40;18.20;98586.00;;;;5053797;28;20241;-50
2023/10/19 08:30:13;;;;;;;3.20;1.83;;;17.00;70.40;18.10;98591.00;;;;5054589;28;20217;-50
2023/10/19 08:32:41;;;;;;;2.00;1.80;;;17.00;70.40;18.10;98604.00;;;;5049789;28;20218;-49
2023/10/19 08:35:08;;;;;;;2.00;1.80;;;17.00;70.40;18.20;98585.00;;;;5049605;28;20209;-50
2023/10/19 08:37:34;;;;;;;2.07;1.80;;;17.10;70.50;18.20;98577.00;;;;5058252;28;20656;-49
2023/10/19 08:40:00;;;;;;;2.10;1.90;;;17.00;70.30;18.10;98580.00;;;;5069810;28;20238;-50
2023/10/19 08:42:27;;;;;;;2.10;1.90;;;17.00;70.40;18.10;98590.00;;;;5069525;28;20347;-50
2023/10/19 08:44:53;;;;;;;1.70;1.60;;;17.00;70.40;18.10;98588.00;;;;5069515;28;20729;-49
2023/10/19 08:47:19;;;;;;;2.27;1.90;;;17.00;70.40;18.20;98582.00;;;;5070930;28;20215;-50
2023/10/19 08:49:45;;;;;;;1.73;1.60;;;17.00;70.30;18.20;98577.00;;;;5069462;28;20264;-50
2023/10/19 08:52:11;;;;;;;2.07;1.90;;;17.00;70.30;18.20;98571.00;;;;5070140;28;20813;-51
2023/10/19 08:54:36;;;;;;;1.97;1.80;;;17.00;70.30;18.20;98577.00;;;;5067920;28;20199;-49
2023/10/19 08:57:02;;;;;;;1.63;1.50;;;17.00;70.30;18.20;98583.00;;;;5067736;28;20351;-49
2023/10/19 08:59:28;;;;;;;1.93;1.80;;;17.00;70.30;18.20;98586.00;;;;5069009;28;20189;-50
2023/10/19 09:02:02;;;;;;;2.20;1.83;;;17.00;70.30;18.20;98587.00;;;;5067958;28;20201;-49
2023/10/19 09:04:29;;;;;;;1.87;1.67;;;17.10;70.40;18.20;98572.00;;;;5069189;28;20192;-50
2023/10/19 09:06:57;;;;;;;2.00;1.90;;;17.10;70.30;18.20;98582.00;;;;5068892;28;20223;-50
2023/10/19 09:09:26;;;;;;;1.90;1.80;;;17.00;70.30;18.20;98575.00;;;;5068651;28;20204;-49
2023/10/19 09:11:55;;;;;;;1.70;1.60;;;17.00;70.30;18.20;98584.00;;;;5056698;28;20636;-50
2023/10/19 09:14:39;;;;;;;1.73;1.63;;;17.10;70.40;18.20;98568.00;;;;5056519;28;20181;-50
2023/10/19 09:17:05;;;;;;;2.07;1.80;;;17.10;70.40;18.20;98564.00;;;;5054864;28;20614;-49
2023/10/19 09:19:43;;;;;;;1.87;1.77;;;17.00;70.10;18.20;98560.00;;;;5068621;28;20177;-50
2023/10/19 09:22:23;;;;;;;1.87;1.77;;;17.10;70.30;18.20;98561.00;;;;5068847;28;20801;-50
2023/10/19 09:24:49;;;;;;;1.80;1.70;;;17.00;70.20;18.20;98554.00;;;;5068766;28;20243;-49
2023/10/19 09:27:21;;;;;;;2.63;2.00;;;17.10;70.40;18.20;98549.00;;;;5068916;28;20211;-49
2023/10/19 09:29:51;;;;;;;1.70;1.60;;;17.10;70.40;18.20;98554.00;;;;5068428;28;20671;-50
2023/10/19 09:32:16;;;;;;;2.03;1.80;;;17.10;70.50;18.20;98549.00;;;;5068623;28;20297;-49
2023/10/19 09:34:43;;;;;;;2.33;2.00;;;17.10;70.50;18.20;98545.00;;;;5065181;28;20608;-51
2023/10/19 09:37:10;;;;;;;2.30;1.90;;;17.10;70.60;18.20;98534.00;;;;5023743;28;20184;-50
2023/10/19 09:39:36;;;;;;;2.30;1.70;;;17.10;70.80;18.20;98536.00;;;;5065492;28;20212;-49
2023/10/19 09:42:12;;;;;;;2.87;1.83;;;17.20;71.10;18.20;98544.00;;;;5060506;28;20197;-50
2023/10/19 09:44:47;;;;;;;2.23;1.60;;;17.30;71.10;18.20;98541.00;;;;5059967;28;20193;-49
2023/10/19 09:47:21;;;;;;;2.77;1.70;;;17.40;71.10;18.30;98525.00;;;;5059450;28;20553;-49
2023/10/19 09:49:49;;;;;;;5.00;1.90;;;17.50;71.00;18.30;98529.00;;;;5051080;28;20213;-49
2023/10/19 09:52:16;;;;;;;8.23;2.07;;;17.50;71.00;18.40;98526.00;;;;5047058;28;20305;-50
2023/10/19 09:55:04;;;;;;;5.53;2.20;;;17.60;71.10;18.40;98513.00;;;;5058067;28;20235;-50
2023/10/19 09:57:51;;;;;;;10.47;2.03;;;17.60;71.10;18.50;98521.00;;;;5058777;28;20171;-49
2023/10/19 10:00:23;;;;;;;5.50;2.30;;;17.70;71.10;18.50;98523.00;;;;5051324;28;20182;-50
2023/10/19 10:02:49;;;;;;;6.27;2.20;;;17.80;71.30;18.60;98525.00;;;;5070921;28;20200;-50
2023/10/19 10:05:43;;;;;;;6.87;2.63;;;17.80;71.50;18.60;98524.00;;;;5071827;28;20196;-50
2023/10/19 10:08:17;;;;;;;4.93;1.97;;;17.80;71.80;18.60;98515.00;;;;5053352;28;20295;-49
2023/10/19 10:10:50;;;;;;;4.60;2.10;;;17.80;72.10;18.60;98517.00;;;;5065352;28;20337;-52
2023/10/19 10:13:30;;;;;;;2.50;1.97;;;17.80;72.20;18.70;98518.00;;;;5063893;28;20246;-50
2023/10/19 10:15:58;;;;;;;7.03;2.03;;;17.90;72.30;18.70;98514.00;;;;5066598;28;20503;-49
2023/10/19 10:18:30;;;;;;;4.43;1.90;;;17.90;72.20;18.70;98517.00;;;;5057207;28;20194;-50
2023/10/19 10:21:08;;;;;;;6.53;2.10;;;17.90;72.30;18.70;98511.00;;;;5062483;28;20803;-51
2023/10/19 10:23:44;;;;;;;6.80;2.03;;;18.00;72.70;18.80;98504.00;;;;5065813;28;20251;-52
2023/10/19 10:26:14;;;;;;;6.90;2.10;;;18.00;72.90;18.80;98519.00;;;;5078048;28;20177;-50
2023/10/19 10:28:40;;;;;;;5.67;2.10;;;18.00;72.90;18.80;98513.00;;;;5072379;28;20205;-51
2023/10/19 10:31:13;;;;;;;8.13;2.10;;;18.00;72.80;18.80;98512.00;;;;5071795;28;20214;-49
2023/10/19 10:33:49;;;;;;;6.90;2.40;;;18.10;72.70;18.90;98508.00;;;;5056439;28;20179;-50
2023/10/19 10:36:16;;;;;;;14.27;2.20;;;18.10;72.70;18.90;98527.00;;;;5071984;28;20211;-50
2023/10/19 10:38:43;;;;;;;7.00;2.30;;;18.10;72.70;18.90;98525.00;;;;5070047;28;20208;-50
2023/10/19 10:41:11;;;;;;;4.67;2.20;;;18.20;72.70;18.90;98522.00;;;;5071556;28;20197;-50
2023/10/19 10:43:56;;;;;;;5.53;2.10;;;18.20;72.70;18.90;98528.00;;;;5071735;28;20178;-52
2023/10/19 10:46:23;;;;;;;6.60;2.33;;;18.20;73.00;19.00;98521.00;;;;5069977;28;20207;-49
2023/10/19 10:48:49;;;;;;;3.30;1.97;;;18.20;72.80;19.00;98512.00;;;;5071654;28;20524;-50
2023/10/19 10:51:36;;;;;;;3.43;1.80;;;18.20;72.80;19.00;98519.00;;;;5070823;28;20221;-50
2023/10/19 10:54:02;;;;;;;3.07;1.90;;;18.20;72.60;19.00;98524.00;;;;5056384;28;20174;-49
2023/10/19 10:56:28;;;;;;;2.73;1.90;;;18.30;72.70;19.00;98527.00;;;;5052930;28;20603;-50
2023/10/19 10:58:54;;;;;;;3.57;2.07;;;18.30;72.50;19.00;98507.00;;;;5071022;28;20858;-50
2023/10/19 11:01:32;;;;;;;3.03;1.73;;;18.30;72.50;19.10;98514.00;;;;5069763;28;20671;-50
2023/10/19 11:04:10;;;;;;;7.37;2.20;;;18.30;72.50;19.10;98510.00;;;;5071369;28;20189;-51
2023/10/19 11:06:55;;;;;;;2.40;1.77;;;18.30;72.50;19.10;98503.00;;;;5071038;28;20588;-50
2023/10/19 11:09:22;;;;;;;3.37;1.80;;;18.30;72.50;19.10;98488.00;;;;5070247;28;20276;-50
2023/10/19 11:11:49;;;;;;;3.27;1.73;;;18.30;72.50;19.10;98481.00;;;;5070660;28;20255;-50
2023/10/19 11:14:15;;;;;;;5.23;2.17;;;18.30;72.50;19.10;98476.00;;;;5071054;28;20181;-50
2023/10/19 11:16:43;;;;;;;3.60;1.80;;;18.30;72.50;19.20;98481.00;;;;5071348;28;20537;-50